Overview Statistics Trail Chart Weather Telemetry Raw packets
 

This is the latest recevied weather packets stored in our database for station/object WMKD. If no packets are shown the sender has not sent any weather packets the latest 10 day(s).

<< 6 7 8 9 10 11 >>
Time Temp. Humidity Pressure Rain* Wind** Luminosity Snow
1777454375 31.67° C 66% 1006 hPa - - - -
1777453778 31.67° C 66% 1006 hPa - - - -
1777450178 32.78° C 59% 1006 hPa - - - -
1777448374 32.78° C 62% 1007 hPa - - - -
1777446578 32.78° C 62% 1007 hPa - - - -
1777442981 30.56° C 70% 1008 hPa - - - -
1777439377 26.67° C 83% 1009 hPa - - - -
1777435778 31.67° C 70% 1010 hPa - - - -
1777432177 31.67° C 66% 1010 hPa - - - -
1777428580 30° C 74% 1010 hPa - - - -
1777424977 28.89° C 83% 1009 hPa - - - -
1777421377 25.56° C 94% 1009 hPa - - - -
1777417781 25° C 10% - - - - -
1777414180 25° C 10% - - - - -
1777410577 25° C 10% - - - - -
1777406977 25.56° C 94% 1007 hPa - - - -
1777403379 25.56° C 94% 1007 hPa - - - -
1777399777 26.67° C 88% 1008 hPa - - - -
1777396180 26.67° C 88% 1008 hPa - - - -
1777392576 26.67° C 94% 1009 hPa - - - -
1777388976 27.78° C 88% 1009 hPa - - - -
1777385377 27.78° C 88% 1009 hPa - - - -
1777381779 27.78° C 88% 1008 hPa - - - -
1777378176 28.89° C 83% 1007 hPa - - - -
1777374576 30° C 79% 1006 hPa - - - -

* Rain since midnight (hover to see other rain measurements)
** Current wind speed in m/s (hover to see current wind gust speed)